createdAt,value
2018-05-24T00:01:27.771Z,101887.66
2018-05-24T00:03:53.731Z,101894.53
2018-05-24T00:06:20.005Z,101899.41
2018-05-24T00:08:45.899Z,101901.71
2018-05-24T00:11:11.763Z,101893.66
2018-05-24T00:13:37.715Z,101894.45
2018-05-24T00:16:03.696Z,101890.97
2018-05-24T00:18:29.569Z,101897.86
2018-05-24T00:20:55.489Z,101885.78
2018-05-24T00:23:21.355Z,101898.11
2018-05-24T00:25:47.240Z,101903.00
2018-05-24T00:28:13.259Z,101895.56
2018-05-24T00:30:39.192Z,101908.05
2018-05-24T00:33:05.093Z,101901.05
2018-05-24T00:35:31.011Z,101901.77
2018-05-24T00:37:56.885Z,101901.27
2018-05-24T00:40:22.855Z,101895.55
2018-05-24T00:42:48.856Z,101904.39
2018-05-24T00:45:14.762Z,101905.88
2018-05-24T00:47:40.670Z,101907.59
2018-05-24T00:50:13.814Z,101915.28
2018-05-24T00:52:39.779Z,101909.83
2018-05-24T00:55:18.108Z,101904.83
2018-05-24T00:57:43.995Z,101914.23
2018-05-24T01:00:09.859Z,101916.68
2018-05-24T01:02:35.766Z,101917.41
2018-05-24T01:05:01.723Z,101913.44
2018-05-24T01:07:27.647Z,101913.64
2018-05-24T01:09:53.565Z,101909.70
2018-05-24T01:12:19.432Z,101913.88
2018-05-24T01:14:45.295Z,101917.55
2018-05-24T01:17:11.306Z,101919.30
2018-05-24T01:19:37.253Z,101918.43
2018-05-24T01:22:03.131Z,101920.33
2018-05-24T01:24:29.081Z,101927.05
2018-05-24T01:26:54.963Z,101930.09
2018-05-24T01:29:20.931Z,101929.23
2018-05-24T01:31:46.924Z,101921.29
2018-05-24T01:34:12.808Z,101925.33
2018-05-24T01:36:51.037Z,101928.64
2018-05-24T01:39:16.937Z,101932.31
2018-05-24T01:41:43.414Z,101937.20
2018-05-24T01:44:09.400Z,101934.56
2018-05-24T01:46:35.280Z,101933.66
2018-05-24T01:49:02.267Z,101928.64
2018-05-24T01:51:28.212Z,101933.41
2018-05-24T01:53:54.167Z,101935.28
2018-05-24T01:56:20.095Z,101931.02
2018-05-24T01:58:46.027Z,101931.40
2018-05-24T02:01:11.928Z,101922.31
2018-05-24T02:03:37.811Z,101928.48
2018-05-24T02:06:03.840Z,101922.88
2018-05-24T02:08:29.769Z,101916.33
2018-05-24T02:10:55.650Z,101918.42
2018-05-24T02:13:21.593Z,101916.38
2018-05-24T02:15:47.468Z,101921.77
2018-05-24T02:18:13.432Z,101915.63
2018-05-24T02:20:39.415Z,101914.52
2018-05-24T02:23:05.321Z,101904.83
2018-05-24T02:25:31.195Z,101906.77
2018-05-24T02:27:57.089Z,101900.23
2018-05-24T02:30:23.035Z,101901.95
2018-05-24T02:32:48.981Z,101897.69
2018-05-24T02:35:14.929Z,101892.49
2018-05-24T02:37:40.833Z,101893.35
2018-05-24T02:40:06.765Z,101889.80
2018-05-24T02:42:32.786Z,101894.78
2018-05-24T02:44:58.740Z,101892.58
2018-05-24T02:47:24.611Z,101896.91
2018-05-24T02:49:50.533Z,101903.61
2018-05-24T02:52:16.399Z,101896.98
2018-05-24T02:54:42.357Z,101900.11
2018-05-24T02:57:08.339Z,101898.31
2018-05-24T02:59:34.217Z,101902.28
2018-05-24T03:02:01.279Z,101905.38
2018-05-24T03:04:27.204Z,101896.16
2018-05-24T03:06:53.186Z,101900.22
2018-05-24T03:09:23.670Z,101902.16
2018-05-24T03:11:49.679Z,101892.81
2018-05-24T03:14:15.638Z,101892.39
2018-05-24T03:16:41.564Z,101902.94
2018-05-24T03:19:07.682Z,101899.00
2018-05-24T03:21:33.548Z,101890.58
2018-05-24T03:24:00.483Z,101886.53
2018-05-24T03:26:26.415Z,101897.03
2018-05-24T03:28:52.410Z,101892.16
2018-05-24T03:31:18.354Z,101893.45
2018-05-24T03:33:44.280Z,101893.81
2018-05-24T03:36:12.214Z,101893.80
2018-05-24T03:38:38.096Z,101888.33
2018-05-24T03:41:04.019Z,101892.52
2018-05-24T03:43:29.895Z,101897.39
2018-05-24T03:45:55.775Z,101898.23
2018-05-24T03:48:21.698Z,101896.80
2018-05-24T03:50:47.560Z,101896.22
2018-05-24T03:53:13.432Z,101899.33
2018-05-24T03:55:39.451Z,101896.45
2018-05-24T03:58:05.331Z,101898.59
2018-05-24T04:00:43.587Z,101903.80
2018-05-24T04:03:22.709Z,101899.80
2018-05-24T04:05:48.650Z,101903.47
2018-05-24T04:08:14.581Z,101902.33
2018-05-24T04:10:40.466Z,101900.05
2018-05-24T04:13:06.493Z,101900.50
2018-05-24T04:15:32.318Z,101890.65
2018-05-24T04:17:58.214Z,101899.30
2018-05-24T04:20:24.123Z,101895.89
2018-05-24T04:22:50.985Z,101897.93
2018-05-24T04:25:16.873Z,101908.06
2018-05-24T04:27:42.879Z,101910.55
2018-05-24T04:30:08.760Z,101913.74
2018-05-24T04:32:34.705Z,101916.06
2018-05-24T04:35:00.652Z,101923.88
2018-05-24T04:37:31.971Z,101924.41
2018-05-24T04:39:57.847Z,101918.20
2018-05-24T04:42:23.771Z,101920.34
2018-05-24T04:44:49.667Z,101924.67
2018-05-24T04:47:15.557Z,101912.99
2018-05-24T04:49:41.507Z,101917.36
2018-05-24T04:52:07.419Z,101918.13
2018-05-24T04:54:33.332Z,101920.97
2018-05-24T04:56:59.335Z,101918.38
2018-05-24T04:59:25.242Z,101926.67
2018-05-24T05:01:51.177Z,101924.39
2018-05-24T05:04:17.134Z,101929.93
2018-05-24T05:06:43.035Z,101928.55
2018-05-24T05:09:08.924Z,101933.00
2018-05-24T05:11:34.859Z,101930.23
2018-05-24T05:14:00.764Z,101933.73
2018-05-24T05:16:26.636Z,101946.45
2018-05-24T05:18:52.572Z,101936.16
2018-05-24T05:21:18.493Z,101935.39
2018-05-24T05:23:44.463Z,101938.06
2018-05-24T05:26:10.389Z,101933.81
2018-05-24T05:28:36.268Z,101944.67
2018-05-24T05:31:02.149Z,101939.63
2018-05-24T05:33:28.183Z,101947.11
2018-05-24T05:35:54.102Z,101943.72
2018-05-24T05:38:20.078Z,101939.45
2018-05-24T05:40:45.930Z,101932.61
2018-05-24T05:43:11.812Z,101940.98
2018-05-24T05:45:37.691Z,101940.70
2018-05-24T05:48:03.607Z,101941.30
2018-05-24T05:50:29.491Z,101942.69
2018-05-24T05:52:55.397Z,101935.44
2018-05-24T05:55:21.363Z,101936.41
2018-05-24T05:57:47.373Z,101929.23
2018-05-24T06:00:13.295Z,101937.09
2018-05-24T06:02:39.272Z,101935.94
2018-05-24T06:05:05.177Z,101939.73
2018-05-24T06:07:31.055Z,101937.47
2018-05-24T06:09:57.072Z,101932.09
2018-05-24T06:12:22.949Z,101936.88
2018-05-24T06:14:48.840Z,101944.00
2018-05-24T06:17:14.763Z,101933.06
2018-05-24T06:19:40.664Z,101933.34
2018-05-24T06:22:06.572Z,101936.63
2018-05-24T06:24:32.496Z,101935.88
2018-05-24T06:27:03.458Z,101928.41
2018-05-24T06:29:29.360Z,101938.45
2018-05-24T06:31:55.280Z,101928.48
2018-05-24T06:34:21.223Z,101929.43
2018-05-24T06:36:47.108Z,101930.70
2018-05-24T06:39:13.020Z,101933.34
2018-05-24T06:41:38.908Z,101931.08
2018-05-24T06:44:04.820Z,101939.39
2018-05-24T06:46:30.787Z,101931.97
2018-05-24T06:48:56.675Z,101935.78
2018-05-24T06:51:22.568Z,101933.70
2018-05-24T06:53:48.547Z,101944.55
2018-05-24T06:56:14.433Z,101944.20
2018-05-24T06:58:40.324Z,101951.68
2018-05-24T07:01:06.280Z,101952.15
2018-05-24T07:03:32.168Z,101945.30
2018-05-24T07:05:58.103Z,101940.64
2018-05-24T07:08:23.978Z,101942.44
2018-05-24T07:10:50.008Z,101950.83
2018-05-24T07:13:15.969Z,101950.82
2018-05-24T07:15:41.896Z,101951.13
2018-05-24T07:18:07.788Z,101950.19
2018-05-24T07:20:33.748Z,101948.50
2018-05-24T07:22:59.718Z,101946.93
2018-05-24T07:25:25.645Z,101941.29
2018-05-24T07:27:56.708Z,101946.13
2018-05-24T07:30:22.689Z,101949.11
2018-05-24T07:32:50.587Z,101949.48
2018-05-24T07:35:16.911Z,101949.78
2018-05-24T07:37:42.931Z,101949.27
2018-05-24T07:40:12.697Z,101954.47
2018-05-24T07:42:38.670Z,101945.57
2018-05-24T07:45:04.684Z,101943.16
2018-05-24T07:47:30.509Z,101948.09
2018-05-24T07:49:56.435Z,101946.64
2018-05-24T07:52:22.355Z,101949.02
2018-05-24T07:54:48.301Z,101948.57
2018-05-24T07:57:14.120Z,101945.98
2018-05-24T07:59:40.051Z,101942.39
2018-05-24T08:02:05.947Z,101935.67
2018-05-24T08:04:31.844Z,101938.80
2018-05-24T08:06:57.764Z,101934.06
2018-05-24T08:09:23.725Z,101937.98
2018-05-24T08:11:49.595Z,101933.64
2018-05-24T08:14:15.582Z,101939.14
2018-05-24T08:16:41.496Z,101935.77
2018-05-24T08:19:07.668Z,101933.62
2018-05-24T08:21:34.104Z,101934.51
2018-05-24T08:24:01.007Z,101933.79
2018-05-24T08:26:27.382Z,101938.52
2018-05-24T08:28:53.377Z,101936.59
2018-05-24T08:31:19.268Z,101938.66
2018-05-24T08:33:45.138Z,101934.09
2018-05-24T08:36:11.103Z,101925.06
2018-05-24T08:38:36.982Z,101929.88
2018-05-24T08:41:02.913Z,101928.66
2018-05-24T08:43:28.983Z,101921.07
2018-05-24T08:45:55.065Z,101924.34
2018-05-24T08:48:20.950Z,101930.64
2018-05-24T08:50:46.893Z,101926.75
2018-05-24T08:53:12.847Z,101927.81
2018-05-24T08:55:38.727Z,101927.39
2018-05-24T08:58:04.684Z,101921.28
2018-05-24T09:00:30.595Z,101921.53
2018-05-24T09:02:56.483Z,101914.77
2018-05-24T09:05:22.699Z,101919.16
2018-05-24T09:07:48.597Z,101919.66
2018-05-24T09:10:14.485Z,101926.06
2018-05-24T09:12:40.430Z,101914.63
2018-05-24T09:15:06.360Z,101925.53
2018-05-24T09:17:32.290Z,101916.14
2018-05-24T09:20:06.657Z,101914.97
2018-05-24T09:22:32.491Z,101910.43
2018-05-24T09:24:58.467Z,101917.34
2018-05-24T09:27:24.556Z,101902.48
2018-05-24T09:29:50.432Z,101901.86
2018-05-24T09:32:16.323Z,101905.84
2018-05-24T09:34:42.276Z,101904.98
2018-05-24T09:37:11.396Z,101911.02
2018-05-24T09:39:37.395Z,101912.48
2018-05-24T09:42:03.418Z,101908.86
2018-05-24T09:44:29.295Z,101905.16
2018-05-24T09:46:55.184Z,101903.92
2018-05-24T09:49:21.591Z,101910.67
2018-05-24T09:51:47.540Z,101902.52
2018-05-24T09:54:13.415Z,101904.47
2018-05-24T09:56:39.347Z,101902.67
2018-05-24T09:59:05.332Z,101902.25
2018-05-24T10:01:31.215Z,101908.48
2018-05-24T10:03:57.164Z,101904.37
2018-05-24T10:06:23.078Z,101902.77
2018-05-24T10:08:48.951Z,101891.16
2018-05-24T10:11:14.859Z,101892.64
2018-05-24T10:13:40.742Z,101892.72
2018-05-24T10:16:06.683Z,101898.48
2018-05-24T10:18:32.633Z,101887.89
2018-05-24T10:20:59.561Z,101883.34
2018-05-24T10:23:25.455Z,101878.81
2018-05-24T10:25:51.415Z,101877.75
2018-05-24T10:28:17.326Z,101874.78
2018-05-24T10:30:43.394Z,101870.05
2018-05-24T10:33:09.323Z,101866.73
2018-05-24T10:35:35.258Z,101865.91
2018-05-24T10:38:03.135Z,101874.67
2018-05-24T10:40:33.929Z,101865.25
2018-05-24T10:43:01.057Z,101871.26
2018-05-24T10:45:27.029Z,101860.48
2018-05-24T10:47:52.992Z,101864.89
2018-05-24T10:50:18.877Z,101843.00
2018-05-24T10:52:44.784Z,101857.13
2018-05-24T10:55:10.704Z,101852.20
2018-05-24T10:57:36.672Z,101846.98
2018-05-24T11:00:03.688Z,101836.64
2018-05-24T11:02:29.664Z,101845.34
2018-05-24T11:04:55.568Z,101841.45
2018-05-24T11:07:21.565Z,101848.83
2018-05-24T11:09:47.495Z,101839.20
2018-05-24T11:12:13.378Z,101830.56
2018-05-24T11:14:39.335Z,101839.30
2018-05-24T11:17:05.265Z,101838.16
2018-05-24T11:19:31.135Z,101828.78
2018-05-24T11:21:57.021Z,101835.68
2018-05-24T11:24:23.042Z,101836.81
2018-05-24T11:26:48.961Z,101830.30
2018-05-24T11:29:14.863Z,101814.76
2018-05-24T11:31:40.816Z,101808.12
2018-05-24T11:34:06.686Z,101812.23
2018-05-24T11:36:32.606Z,101811.02
2018-05-24T11:39:01.257Z,101812.31
2018-05-24T11:41:27.478Z,101808.56
2018-05-24T11:43:53.465Z,101799.52
2018-05-24T11:46:19.393Z,101797.81
2018-05-24T11:48:45.267Z,101797.89
2018-05-24T11:51:14.260Z,101793.69
2018-05-24T11:53:40.920Z,101789.69
2018-05-24T11:56:06.849Z,101779.33
2018-05-24T11:58:32.758Z,101775.09
2018-05-24T12:01:03.520Z,101776.39
2018-05-24T12:03:29.396Z,101776.39
2018-05-24T12:05:55.945Z,101782.63
2018-05-24T12:08:21.884Z,101774.59
2018-05-24T12:10:47.770Z,101775.53
2018-05-24T12:13:13.663Z,101771.44
2018-05-24T12:15:39.600Z,101762.98
2018-05-24T12:18:06.524Z,101768.22
2018-05-24T12:20:32.404Z,101758.30
2018-05-24T12:22:58.337Z,101755.17
2018-05-24T12:25:24.244Z,101751.87
2018-05-24T12:27:50.117Z,101733.25
2018-05-24T12:30:16.032Z,101753.94
2018-05-24T12:32:42.004Z,101746.84
2018-05-24T12:35:07.891Z,101746.89
2018-05-24T12:37:33.825Z,101742.70
2018-05-24T12:39:59.792Z,101755.44
2018-05-24T12:42:25.677Z,101749.75
2018-05-24T12:44:51.608Z,101741.72
2018-05-24T12:47:17.516Z,101731.23
2018-05-24T12:49:43.426Z,101734.41
2018-05-24T12:52:09.368Z,101736.67
2018-05-24T12:54:35.280Z,101726.45
2018-05-24T12:57:01.172Z,101719.98
2018-05-24T12:59:27.102Z,101721.37
2018-05-24T13:01:53.004Z,101713.69
2018-05-24T13:04:18.993Z,101709.66
2018-05-24T13:06:44.980Z,101718.11
2018-05-24T13:09:10.932Z,101703.30
2018-05-24T13:11:36.866Z,101694.77
2018-05-24T13:14:02.791Z,101692.30
2018-05-24T13:16:28.671Z,101702.52
2018-05-24T13:18:54.612Z,101688.14
2018-05-24T13:21:22.659Z,101680.51
2018-05-24T13:23:53.300Z,101679.12
2018-05-24T13:26:35.437Z,101678.84
2018-05-24T13:29:05.507Z,101668.27
2018-05-24T13:31:31.545Z,101665.31
2018-05-24T13:34:00.932Z,101668.92
2018-05-24T13:36:27.681Z,101662.69
2018-05-24T13:38:57.144Z,101656.11
2018-05-24T13:41:26.769Z,101663.95
2018-05-24T13:43:52.924Z,101653.04
2018-05-24T13:46:18.871Z,101658.39
2018-05-24T13:48:44.815Z,101645.73
2018-05-24T13:51:10.791Z,101652.41
2018-05-24T13:53:36.753Z,101650.02
2018-05-24T13:56:05.709Z,101662.52
2018-05-24T13:58:31.826Z,101639.73
2018-05-24T14:01:03.472Z,101635.05
2018-05-24T14:03:30.099Z,101638.52
2018-05-24T14:05:56.994Z,101643.75
2018-05-24T14:08:23.010Z,101642.34
2018-05-24T14:10:55.436Z,101638.69
2018-05-24T14:13:21.411Z,101646.70
2018-05-24T14:15:47.636Z,101638.91
2018-05-24T14:18:13.913Z,101635.02
2018-05-24T14:20:40.163Z,101628.84
2018-05-24T14:23:06.249Z,101624.53
2018-05-24T14:25:32.227Z,101627.48
2018-05-24T14:30:36.805Z,101640.28
2018-05-24T14:33:06.392Z,101620.29
2018-05-24T14:35:33.224Z,101627.02
2018-05-24T14:38:01.875Z,101619.90
2018-05-24T14:40:36.404Z,101614.66
2018-05-24T14:43:06.428Z,101632.23
2018-05-24T14:48:03.990Z,101631.73
2018-05-24T14:50:34.212Z,101620.06
2018-05-24T14:53:03.258Z,101626.82
2018-05-24T14:55:32.228Z,101622.33
2018-05-24T14:58:00.990Z,101630.86
2018-05-24T15:00:28.956Z,101622.79
2018-05-24T15:02:54.960Z,101620.77
2018-05-24T15:05:21.418Z,101612.45
2018-05-24T15:07:47.353Z,101614.91
2018-05-24T15:10:14.589Z,101627.38
2018-05-24T15:12:40.524Z,101619.94
2018-05-24T15:15:06.527Z,101613.03
2018-05-24T15:17:33.779Z,101614.76
2018-05-24T15:19:59.662Z,101609.22
2018-05-24T15:22:28.756Z,101608.69
2018-05-24T15:24:55.008Z,101603.86
2018-05-24T15:27:21.038Z,101609.73
2018-05-24T15:29:46.949Z,101609.00
2018-05-24T15:32:12.949Z,101601.21
2018-05-24T15:34:38.892Z,101607.22
2018-05-24T15:37:04.786Z,101599.83
2018-05-24T15:39:30.751Z,101600.27
2018-05-24T15:41:56.634Z,101596.05
2018-05-24T15:44:22.724Z,101586.93
2018-05-24T15:46:48.659Z,101585.46
2018-05-24T15:49:14.587Z,101585.37
2018-05-24T15:51:40.476Z,101589.56
2018-05-24T15:54:06.436Z,101585.38
2018-05-24T15:56:32.411Z,101577.18
2018-05-24T15:58:58.380Z,101581.16
2018-05-24T16:01:28.783Z,101569.30
2018-05-24T16:03:54.709Z,101575.69
2018-05-24T16:06:20.627Z,101584.75
2018-05-24T16:08:46.644Z,101577.36
2018-05-24T16:11:12.555Z,101578.38
2018-05-24T16:13:38.609Z,101578.37
2018-05-24T16:16:04.560Z,101575.91
2018-05-24T16:18:30.490Z,101571.32
2018-05-24T16:20:56.482Z,101577.17
2018-05-24T16:23:22.644Z,101575.28
2018-05-24T16:25:48.544Z,101582.00
2018-05-24T16:28:14.490Z,101588.83
2018-05-24T16:30:40.452Z,101597.73
2018-05-24T16:33:06.412Z,101595.83
2018-05-24T16:35:32.299Z,101596.42
2018-05-24T16:37:59.161Z,101593.69
2018-05-24T16:40:25.067Z,101594.44
2018-05-24T16:42:50.976Z,101594.17
2018-05-24T16:45:17.065Z,101595.78
2018-05-24T16:47:42.988Z,101590.55
2018-05-24T16:50:08.870Z,101585.79
2018-05-24T16:52:35.148Z,101586.39
2018-05-24T16:55:03.184Z,101591.00
2018-05-24T16:57:29.192Z,101584.89
2018-05-24T16:59:55.171Z,101589.15
2018-05-24T17:02:21.107Z,101591.75
2018-05-24T17:04:47.064Z,101600.73
2018-05-24T17:07:13.320Z,101595.47
2018-05-24T17:09:39.324Z,101596.66
2018-05-24T17:12:05.205Z,101592.11
2018-05-24T17:14:33.112Z,101581.58
2018-05-24T17:17:00.574Z,101596.33
2018-05-24T17:19:28.923Z,101587.45
2018-05-24T17:21:55.716Z,101585.05
2018-05-24T17:24:21.666Z,101587.41
2018-05-24T17:26:47.548Z,101585.66
2018-05-24T17:29:13.499Z,101587.54
2018-05-24T17:31:41.008Z,101588.97
2018-05-24T17:34:07.709Z,101590.36
2018-05-24T17:36:35.887Z,101596.91
2018-05-24T17:39:01.913Z,101591.78
2018-05-24T17:41:27.844Z,101594.81
2018-05-24T17:43:53.824Z,101594.66
2018-05-24T17:46:19.799Z,101598.18
2018-05-24T17:48:45.669Z,101596.56
2018-05-24T17:51:11.604Z,101602.67
2018-05-24T17:53:37.496Z,101606.36
2018-05-24T17:56:06.281Z,101600.76
2018-05-24T17:58:41.237Z,101607.63
2018-05-24T18:01:08.770Z,101606.63
2018-05-24T18:03:35.015Z,101599.58
2018-05-24T18:06:01.096Z,101606.30
2018-05-24T18:08:27.054Z,101611.54
2018-05-24T18:10:53.008Z,101606.70
2018-05-24T18:13:18.968Z,101613.88
2018-05-24T18:15:44.848Z,101617.11
2018-05-24T18:18:10.760Z,101618.84
2018-05-24T18:20:36.855Z,101616.16
2018-05-24T18:23:02.920Z,101618.66
2018-05-24T18:25:33.808Z,101621.55
2018-05-24T18:28:00.233Z,101622.86
2018-05-24T18:30:27.583Z,101616.11
2018-05-24T18:32:55.337Z,101622.03
2018-05-24T18:35:21.429Z,101622.27
2018-05-24T18:37:47.385Z,101622.92
2018-05-24T18:40:13.303Z,101618.94
2018-05-24T18:42:39.562Z,101618.80
2018-05-24T18:45:05.514Z,101626.86
2018-05-24T18:47:33.548Z,101625.41
2018-05-24T18:49:59.475Z,101624.07
2018-05-24T18:52:33.445Z,101623.34
2018-05-24T18:55:00.713Z,101623.16
2018-05-24T18:57:26.700Z,101624.12
2018-05-24T18:59:52.882Z,101622.70
2018-05-24T19:02:18.886Z,101623.84
2018-05-24T19:04:44.940Z,101623.87
2018-05-24T19:07:11.709Z,101626.97
2018-05-24T19:09:38.325Z,101630.41
2018-05-24T19:12:04.347Z,101634.63
2018-05-24T19:14:30.247Z,101638.83
2018-05-24T19:16:56.189Z,101638.81
2018-05-24T19:19:22.209Z,101647.66
2018-05-24T19:21:48.171Z,101644.31
2018-05-24T19:24:14.472Z,101643.96
2018-05-24T19:26:40.424Z,101646.10
2018-05-24T19:29:07.297Z,101645.42
2018-05-24T19:31:33.251Z,101645.93
2018-05-24T19:33:59.123Z,101647.44
2018-05-24T19:36:25.048Z,101650.29
2018-05-24T19:38:53.082Z,101647.17
2018-05-24T19:41:19.224Z,101648.48
2018-05-24T19:43:45.368Z,101652.45
2018-05-24T19:46:11.291Z,101656.42
2018-05-24T19:48:37.168Z,101658.25
2018-05-24T19:51:03.136Z,101659.95
2018-05-24T19:53:29.066Z,101656.61
2018-05-24T19:55:55.000Z,101663.26
2018-05-24T19:58:21.032Z,101665.36
2018-05-24T20:00:47.088Z,101661.75
2018-05-24T20:03:13.054Z,101664.75
2018-05-24T20:05:39.009Z,101664.69
2018-05-24T20:08:04.953Z,101672.02
2018-05-24T20:10:30.994Z,101673.02
2018-05-24T20:12:56.971Z,101674.69
2018-05-24T20:15:23.032Z,101674.91
2018-05-24T20:17:49.562Z,101674.80
2018-05-24T20:20:15.656Z,101680.98
2018-05-24T20:22:42.395Z,101680.55
2018-05-24T20:25:10.544Z,101685.08
2018-05-24T20:27:36.504Z,101693.24
2018-05-24T20:30:02.512Z,101685.33
2018-05-24T20:32:28.826Z,101689.55
2018-05-24T20:34:55.399Z,101687.09
2018-05-24T20:37:21.784Z,101688.67
2018-05-24T20:39:55.198Z,101685.16
2018-05-24T20:42:21.355Z,101687.36
2018-05-24T20:46:18.060Z,101700.19
2018-05-24T20:48:46.243Z,101699.09
2018-05-24T20:51:12.207Z,101696.58
2018-05-24T20:53:39.156Z,101696.81
2018-05-24T20:56:05.115Z,101698.12
2018-05-24T20:58:31.071Z,101691.77
2018-05-24T21:00:57.000Z,101693.48
2018-05-24T21:03:23.900Z,101688.78
2018-05-24T21:05:49.884Z,101696.67
2018-05-24T21:08:34.955Z,101695.95
2018-05-24T21:11:00.876Z,101686.01
2018-05-24T21:13:26.827Z,101692.84
2018-05-24T21:15:52.820Z,101692.10
2018-05-24T21:18:18.775Z,101684.39
2018-05-24T21:20:44.845Z,101684.20
2018-05-24T21:23:10.827Z,101686.27
2018-05-24T21:25:36.746Z,101682.30
2018-05-24T21:28:02.676Z,101683.28
2018-05-24T21:30:32.652Z,101680.34
2018-05-24T21:32:58.609Z,101677.84
2018-05-24T21:35:24.573Z,101681.67
2018-05-24T21:37:50.642Z,101684.64
2018-05-24T21:40:16.653Z,101683.41
2018-05-24T21:42:42.580Z,101675.23
2018-05-24T21:45:08.579Z,101686.55
2018-05-24T21:47:34.521Z,101691.54
2018-05-24T21:50:00.436Z,101688.11
2018-05-24T21:52:26.415Z,101690.90
2018-05-24T21:54:52.428Z,101691.45
2018-05-24T21:57:19.425Z,101693.12
2018-05-24T21:59:45.412Z,101690.13
2018-05-24T22:02:11.341Z,101695.14
2018-05-24T22:04:37.247Z,101699.42
2018-05-24T22:07:03.209Z,101700.06
2018-05-24T22:09:29.123Z,101698.96
2018-05-24T22:11:55.066Z,101693.25
2018-05-24T22:14:21.055Z,101697.52
2018-05-24T22:16:46.975Z,101702.19
2018-05-24T22:19:12.901Z,101695.23
2018-05-24T22:21:38.957Z,101697.73
2018-05-24T22:24:04.980Z,101698.30
2018-05-24T22:26:30.898Z,101694.50
2018-05-24T22:28:56.896Z,101703.51
2018-05-24T22:31:22.910Z,101699.11
2018-05-24T22:33:48.852Z,101703.22
2018-05-24T22:36:14.826Z,101700.70
2018-05-24T22:38:40.788Z,101700.30
2018-05-24T22:41:06.712Z,101704.37
2018-05-24T22:43:32.731Z,101705.02
2018-05-24T22:45:58.640Z,101709.20
2018-05-24T22:48:24.641Z,101710.67
2018-05-24T22:50:50.656Z,101709.53
2018-05-24T22:53:16.708Z,101710.97
2018-05-24T22:55:42.645Z,101708.88
2018-05-24T22:58:08.609Z,101719.16
2018-05-24T23:00:34.557Z,101716.16
2018-05-24T23:03:00.517Z,101721.13
2018-05-24T23:05:26.470Z,101718.66
2018-05-24T23:07:52.445Z,101713.95
2018-05-24T23:10:21.879Z,101715.41
2018-05-24T23:12:47.829Z,101708.11
2018-05-24T23:15:13.746Z,101712.23
2018-05-24T23:17:39.655Z,101716.80
2018-05-24T23:20:05.632Z,101711.27
2018-05-24T23:22:37.534Z,101705.22
2018-05-24T23:25:03.479Z,101705.80
2018-05-24T23:27:29.480Z,101706.47
2018-05-24T23:29:55.411Z,101720.26
2018-05-24T23:32:21.366Z,101717.77
2018-05-24T23:34:47.322Z,101720.08
2018-05-24T23:37:13.236Z,101709.88
2018-05-24T23:39:40.260Z,101716.06
2018-05-24T23:42:06.221Z,101713.13
2018-05-24T23:44:32.336Z,101714.06
2018-05-24T23:46:58.309Z,101709.30
2018-05-24T23:49:24.345Z,101715.49
2018-05-24T23:51:50.359Z,101718.53
2018-05-24T23:54:16.276Z,101716.88
2018-05-24T23:56:42.235Z,101716.77
2018-05-24T23:59:08.158Z,101716.34
